sensor_id;sensor_type;location;lat;lon;timestamp;P1;durP1;ratioP1;P2;durP2;ratioP2
7833;SDS011;3962;42.696;23.354;2024-01-25T00:00:53;22.50;;;20.87;;
7833;SDS011;3962;42.696;23.354;2024-01-25T00:03:19;19.63;;;18.73;;
7833;SDS011;3962;42.696;23.354;2024-01-25T00:05:48;18.07;;;17.27;;
7833;SDS011;3962;42.696;23.354;2024-01-25T00:08:15;19.40;;;18.50;;
7833;SDS011;3962;42.696;23.354;2024-01-25T00:10:41;19.90;;;19.00;;
7833;SDS011;3962;42.696;23.354;2024-01-25T00:13:08;21.10;;;20.10;;
7833;SDS011;3962;42.696;23.354;2024-01-25T00:15:35;18.73;;;17.93;;
7833;SDS011;3962;42.696;23.354;2024-01-25T00:18:02;19.77;;;18.73;;
7833;SDS011;3962;42.696;23.354;2024-01-25T00:20:29;21.07;;;19.87;;
7833;SDS011;3962;42.696;23.354;2024-01-25T00:22:57;18.60;;;17.80;;
7833;SDS011;3962;42.696;23.354;2024-01-25T00:25:24;18.70;;;17.90;;
7833;SDS011;3962;42.696;23.354;2024-01-25T00:27:50;20.10;;;19.20;;
7833;SDS011;3962;42.696;23.354;2024-01-25T00:30:18;20.07;;;19.17;;
7833;SDS011;3962;42.696;23.354;2024-01-25T00:32:45;19.33;;;18.43;;
7833;SDS011;3962;42.696;23.354;2024-01-25T00:35:12;19.23;;;18.37;;
7833;SDS011;3962;42.696;23.354;2024-01-25T00:37:40;18.60;;;17.80;;
7833;SDS011;3962;42.696;23.354;2024-01-25T00:40:09;18.83;;;18.03;;
7833;SDS011;3962;42.696;23.354;2024-01-25T00:42:41;17.90;;;17.10;;
7833;SDS011;3962;42.696;23.354;2024-01-25T00:45:09;15.97;;;15.27;;
7833;SDS011;3962;42.696;23.354;2024-01-25T00:47:37;17.17;;;16.37;;
7833;SDS011;3962;42.696;23.354;2024-01-25T00:50:05;18.03;;;17.23;;
7833;SDS011;3962;42.696;23.354;2024-01-25T00:52:33;20.17;;;19.27;;
7833;SDS011;3962;42.696;23.354;2024-01-25T00:55:01;18.43;;;17.63;;
7833;SDS011;3962;42.696;23.354;2024-01-25T00:57:30;19.33;;;18.43;;
7833;SDS011;3962;42.696;23.354;2024-01-25T00:59:58;19.60;;;18.70;;
7833;SDS011;3962;42.696;23.354;2024-01-25T01:02:25;21.70;;;20.67;;
7833;SDS011;3962;42.696;23.354;2024-01-25T01:04:56;18.23;;;17.43;;
7833;SDS011;3962;42.696;23.354;2024-01-25T01:07:23;18.63;;;17.83;;
7833;SDS011;3962;42.696;23.354;2024-01-25T01:09:50;17.87;;;17.07;;
7833;SDS011;3962;42.696;23.354;2024-01-25T01:12:17;19.33;;;18.43;;
7833;SDS011;3962;42.696;23.354;2024-01-25T01:14:46;18.63;;;17.83;;
7833;SDS011;3962;42.696;23.354;2024-01-25T01:17:13;17.23;;;16.43;;
7833;SDS011;3962;42.696;23.354;2024-01-25T01:19:40;19.47;;;18.57;;
7833;SDS011;3962;42.696;23.354;2024-01-25T01:22:07;17.93;;;17.13;;
7833;SDS011;3962;42.696;23.354;2024-01-25T01:24:34;19.67;;;18.77;;
7833;SDS011;3962;42.696;23.354;2024-01-25T01:27:01;18.80;;;18.00;;
7833;SDS011;3962;42.696;23.354;2024-01-25T01:29:28;18.70;;;17.90;;
7833;SDS011;3962;42.696;23.354;2024-01-25T01:31:56;19.80;;;18.90;;
7833;SDS011;3962;42.696;23.354;2024-01-25T01:34:23;19.53;;;18.63;;
7833;SDS011;3962;42.696;23.354;2024-01-25T01:36:50;19.43;;;18.53;;
7833;SDS011;3962;42.696;23.354;2024-01-25T01:39:17;19.90;;;19.00;;
7833;SDS011;3962;42.696;23.354;2024-01-25T01:41:46;18.80;;;18.00;;
7833;SDS011;3962;42.696;23.354;2024-01-25T01:44:13;19.23;;;18.40;;
7833;SDS011;3962;42.696;23.354;2024-01-25T01:46:40;20.37;;;19.47;;
7833;SDS011;3962;42.696;23.354;2024-01-25T01:49:10;20.17;;;19.27;;
7833;SDS011;3962;42.696;23.354;2024-01-25T01:51:38;20.90;;;19.97;;
7833;SDS011;3962;42.696;23.354;2024-01-25T01:54:07;20.00;;;19.10;;
7833;SDS011;3962;42.696;23.354;2024-01-25T01:56:35;20.30;;;19.40;;
7833;SDS011;3962;42.696;23.354;2024-01-25T01:59:02;19.43;;;18.53;;
7833;SDS011;3962;42.696;23.354;2024-01-25T02:01:31;19.97;;;19.07;;
7833;SDS011;3962;42.696;23.354;2024-01-25T02:03:58;20.10;;;19.20;;
7833;SDS011;3962;42.696;23.354;2024-01-25T02:06:27;20.37;;;19.47;;
7833;SDS011;3962;42.696;23.354;2024-01-25T02:08:54;18.20;;;17.40;;
7833;SDS011;3962;42.696;23.354;2024-01-25T02:11:23;20.63;;;19.67;;
7833;SDS011;3962;42.696;23.354;2024-01-25T02:13:50;19.40;;;18.50;;
7833;SDS011;3962;42.696;23.354;2024-01-25T02:16:17;20.77;;;19.87;;
7833;SDS011;3962;42.696;23.354;2024-01-25T02:18:45;20.30;;;19.40;;
7833;SDS011;3962;42.696;23.354;2024-01-25T02:21:12;19.60;;;18.70;;
7833;SDS011;3962;42.696;23.354;2024-01-25T02:23:40;21.07;;;20.17;;
7833;SDS011;3962;42.696;23.354;2024-01-25T02:26:07;20.40;;;19.50;;
7833;SDS011;3962;42.696;23.354;2024-01-25T02:28:34;20.27;;;19.37;;
7833;SDS011;3962;42.696;23.354;2024-01-25T02:31:01;20.07;;;19.17;;
7833;SDS011;3962;42.696;23.354;2024-01-25T02:33:28;18.33;;;17.53;;
7833;SDS011;3962;42.696;23.354;2024-01-25T02:35:55;19.33;;;18.43;;
7833;SDS011;3962;42.696;23.354;2024-01-25T02:38:22;20.60;;;19.70;;
7833;SDS011;3962;42.696;23.354;2024-01-25T02:40:50;20.17;;;19.27;;
7833;SDS011;3962;42.696;23.354;2024-01-25T02:43:18;17.37;;;16.57;;
7833;SDS011;3962;42.696;23.354;2024-01-25T02:45:45;18.67;;;17.87;;
7833;SDS011;3962;42.696;23.354;2024-01-25T02:48:13;19.77;;;18.87;;
7833;SDS011;3962;42.696;23.354;2024-01-25T02:50:40;19.33;;;18.43;;
7833;SDS011;3962;42.696;23.354;2024-01-25T02:53:07;18.03;;;17.23;;
7833;SDS011;3962;42.696;23.354;2024-01-25T02:55:34;20.00;;;19.10;;
7833;SDS011;3962;42.696;23.354;2024-01-25T02:58:02;20.40;;;19.50;;
7833;SDS011;3962;42.696;23.354;2024-01-25T03:00:29;20.13;;;19.23;;
7833;SDS011;3962;42.696;23.354;2024-01-25T03:02:56;17.83;;;17.03;;
7833;SDS011;3962;42.696;23.354;2024-01-25T03:05:23;18.63;;;17.83;;
7833;SDS011;3962;42.696;23.354;2024-01-25T03:07:49;17.43;;;16.70;;
7833;SDS011;3962;42.696;23.354;2024-01-25T03:10:16;17.37;;;16.63;;
7833;SDS011;3962;42.696;23.354;2024-01-25T03:12:43;18.30;;;17.50;;
7833;SDS011;3962;42.696;23.354;2024-01-25T03:15:11;18.60;;;17.80;;
7833;SDS011;3962;42.696;23.354;2024-01-25T03:17:38;19.13;;;18.27;;
7833;SDS011;3962;42.696;23.354;2024-01-25T03:20:06;17.50;;;16.77;;
7833;SDS011;3962;42.696;23.354;2024-01-25T03:22:33;15.57;;;14.87;;
7833;SDS011;3962;42.696;23.354;2024-01-25T03:25:00;16.73;;;16.03;;
7833;SDS011;3962;42.696;23.354;2024-01-25T03:27:27;16.00;;;15.30;;
7833;SDS011;3962;42.696;23.354;2024-01-25T03:29:53;17.87;;;17.07;;
7833;SDS011;3962;42.696;23.354;2024-01-25T03:32:22;16.43;;;15.73;;
7833;SDS011;3962;42.696;23.354;2024-01-25T03:34:48;14.77;;;14.17;;
7833;SDS011;3962;42.696;23.354;2024-01-25T03:37:15;15.13;;;14.43;;
7833;SDS011;3962;42.696;23.354;2024-01-25T03:39:42;15.40;;;14.70;;
7833;SDS011;3962;42.696;23.354;2024-01-25T03:42:09;16.00;;;15.30;;
7833;SDS011;3962;42.696;23.354;2024-01-25T03:44:36;13.50;;;12.90;;
7833;SDS011;3962;42.696;23.354;2024-01-25T03:47:03;14.87;;;14.27;;
7833;SDS011;3962;42.696;23.354;2024-01-25T03:49:32;14.60;;;14.00;;
7833;SDS011;3962;42.696;23.354;2024-01-25T03:51:59;14.67;;;14.07;;
7833;SDS011;3962;42.696;23.354;2024-01-25T03:54:25;16.03;;;15.33;;
7833;SDS011;3962;42.696;23.354;2024-01-25T03:56:52;14.57;;;13.97;;
7833;SDS011;3962;42.696;23.354;2024-01-25T03:59:19;16.03;;;15.33;;
7833;SDS011;3962;42.696;23.354;2024-01-25T04:01:46;14.03;;;13.43;;
7833;SDS011;3962;42.696;23.354;2024-01-25T04:04:14;14.07;;;13.47;;
7833;SDS011;3962;42.696;23.354;2024-01-25T04:06:43;13.93;;;13.33;;
7833;SDS011;3962;42.696;23.354;2024-01-25T04:09:12;15.87;;;15.17;;
7833;SDS011;3962;42.696;23.354;2024-01-25T04:11:40;14.83;;;14.13;;
7833;SDS011;3962;42.696;23.354;2024-01-25T04:14:07;15.17;;;14.47;;
7833;SDS011;3962;42.696;23.354;2024-01-25T04:16:34;15.80;;;15.10;;
7833;SDS011;3962;42.696;23.354;2024-01-25T04:19:00;15.50;;;14.80;;
7833;SDS011;3962;42.696;23.354;2024-01-25T04:21:27;15.70;;;15.00;;
7833;SDS011;3962;42.696;23.354;2024-01-25T04:23:56;16.57;;;15.87;;
7833;SDS011;3962;42.696;23.354;2024-01-25T04:26:23;14.30;;;13.70;;
7833;SDS011;3962;42.696;23.354;2024-01-25T04:28:50;16.07;;;15.37;;
7833;SDS011;3962;42.696;23.354;2024-01-25T04:31:16;15.60;;;14.90;;
7833;SDS011;3962;42.696;23.354;2024-01-25T04:33:44;15.50;;;14.80;;
7833;SDS011;3962;42.696;23.354;2024-01-25T04:36:11;15.40;;;14.70;;
7833;SDS011;3962;42.696;23.354;2024-01-25T04:38:38;14.00;;;13.40;;
7833;SDS011;3962;42.696;23.354;2024-01-25T04:41:06;15.20;;;14.50;;
7833;SDS011;3962;42.696;23.354;2024-01-25T04:43:33;16.27;;;15.57;;
7833;SDS011;3962;42.696;23.354;2024-01-25T04:46:01;16.47;;;15.77;;
7833;SDS011;3962;42.696;23.354;2024-01-25T04:48:28;15.43;;;14.73;;
7833;SDS011;3962;42.696;23.354;2024-01-25T04:50:56;14.87;;;14.27;;
7833;SDS011;3962;42.696;23.354;2024-01-25T04:53:23;16.23;;;15.53;;
7833;SDS011;3962;42.696;23.354;2024-01-25T04:55:50;15.53;;;14.83;;
7833;SDS011;3962;42.696;23.354;2024-01-25T04:58:18;16.97;;;16.27;;
7833;SDS011;3962;42.696;23.354;2024-01-25T05:00:45;16.63;;;15.93;;
7833;SDS011;3962;42.696;23.354;2024-01-25T05:03:12;16.43;;;15.73;;
7833;SDS011;3962;42.696;23.354;2024-01-25T05:05:39;15.00;;;14.30;;
7833;SDS011;3962;42.696;23.354;2024-01-25T05:08:06;17.13;;;16.43;;
7833;SDS011;3962;42.696;23.354;2024-01-25T05:10:33;17.50;;;16.70;;
7833;SDS011;3962;42.696;23.354;2024-01-25T05:12:59;16.63;;;15.93;;
7833;SDS011;3962;42.696;23.354;2024-01-25T05:15:28;17.27;;;16.57;;
7833;SDS011;3962;42.696;23.354;2024-01-25T05:17:54;16.43;;;15.73;;
7833;SDS011;3962;42.696;23.354;2024-01-25T05:20:21;17.10;;;16.40;;
7833;SDS011;3962;42.696;23.354;2024-01-25T05:22:48;17.07;;;16.33;;
7833;SDS011;3962;42.696;23.354;2024-01-25T05:25:15;17.60;;;16.80;;
7833;SDS011;3962;42.696;23.354;2024-01-25T05:27:41;17.30;;;16.60;;
7833;SDS011;3962;42.696;23.354;2024-01-25T05:30:09;16.40;;;15.70;;
7833;SDS011;3962;42.696;23.354;2024-01-25T05:32:37;15.53;;;14.83;;
7833;SDS011;3962;42.696;23.354;2024-01-25T05:35:05;15.37;;;14.70;;
7833;SDS011;3962;42.696;23.354;2024-01-25T05:37:33;14.13;;;13.53;;
7833;SDS011;3962;42.696;23.354;2024-01-25T05:40:00;16.60;;;15.90;;
7833;SDS011;3962;42.696;23.354;2024-01-25T05:42:27;15.27;;;14.57;;
7833;SDS011;3962;42.696;23.354;2024-01-25T05:44:54;14.63;;;14.03;;
7833;SDS011;3962;42.696;23.354;2024-01-25T05:47:20;16.73;;;16.03;;
7833;SDS011;3962;42.696;23.354;2024-01-25T05:49:49;17.63;;;16.83;;
7833;SDS011;3962;42.696;23.354;2024-01-25T05:52:16;14.97;;;14.37;;
7833;SDS011;3962;42.696;23.354;2024-01-25T05:54:43;16.27;;;15.57;;
7833;SDS011;3962;42.696;23.354;2024-01-25T05:57:10;16.27;;;15.57;;
7833;SDS011;3962;42.696;23.354;2024-01-25T05:59:37;15.70;;;15.00;;
7833;SDS011;3962;42.696;23.354;2024-01-25T06:02:04;16.40;;;15.70;;
7833;SDS011;3962;42.696;23.354;2024-01-25T06:04:31;14.80;;;14.20;;
7833;SDS011;3962;42.696;23.354;2024-01-25T06:07:00;16.10;;;15.40;;
7833;SDS011;3962;42.696;23.354;2024-01-25T06:09:27;15.90;;;15.20;;
7833;SDS011;3962;42.696;23.354;2024-01-25T06:11:54;16.00;;;15.30;;
7833;SDS011;3962;42.696;23.354;2024-01-25T06:14:22;15.57;;;14.87;;
7833;SDS011;3962;42.696;23.354;2024-01-25T06:16:48;15.93;;;15.23;;
7833;SDS011;3962;42.696;23.354;2024-01-25T06:19:18;16.10;;;15.40;;
7833;SDS011;3962;42.696;23.354;2024-01-25T06:21:45;15.17;;;14.53;;
7833;SDS011;3962;42.696;23.354;2024-01-25T06:24:13;14.63;;;14.03;;
7833;SDS011;3962;42.696;23.354;2024-01-25T06:26:40;15.07;;;14.43;;
7833;SDS011;3962;42.696;23.354;2024-01-25T06:29:07;14.80;;;14.20;;
7833;SDS011;3962;42.696;23.354;2024-01-25T06:31:39;15.77;;;15.07;;
7833;SDS011;3962;42.696;23.354;2024-01-25T06:34:08;15.50;;;14.80;;
7833;SDS011;3962;42.696;23.354;2024-01-25T06:36:35;14.97;;;14.37;;
7833;SDS011;3962;42.696;23.354;2024-01-25T06:39:02;16.57;;;15.83;;
7833;SDS011;3962;42.696;23.354;2024-01-25T06:41:30;16.63;;;15.93;;
7833;SDS011;3962;42.696;23.354;2024-01-25T06:43:58;15.80;;;15.10;;
7833;SDS011;3962;42.696;23.354;2024-01-25T06:46:28;15.07;;;14.37;;
7833;SDS011;3962;42.696;23.354;2024-01-25T06:48:55;15.30;;;14.60;;
7833;SDS011;3962;42.696;23.354;2024-01-25T06:51:22;15.23;;;14.53;;
7833;SDS011;3962;42.696;23.354;2024-01-25T06:53:49;14.50;;;13.90;;
7833;SDS011;3962;42.696;23.354;2024-01-25T06:56:16;15.40;;;14.70;;
7833;SDS011;3962;42.696;23.354;2024-01-25T06:58:44;16.00;;;15.30;;
7833;SDS011;3962;42.696;23.354;2024-01-25T07:01:11;14.07;;;13.47;;
7833;SDS011;3962;42.696;23.354;2024-01-25T07:03:38;16.40;;;15.60;;
7833;SDS011;3962;42.696;23.354;2024-01-25T07:06:05;16.23;;;15.53;;
7833;SDS011;3962;42.696;23.354;2024-01-25T07:08:32;15.87;;;15.17;;
7833;SDS011;3962;42.696;23.354;2024-01-25T07:10:59;16.33;;;15.63;;
7833;SDS011;3962;42.696;23.354;2024-01-25T07:13:27;15.13;;;14.43;;
7833;SDS011;3962;42.696;23.354;2024-01-25T07:15:55;15.90;;;15.20;;
7833;SDS011;3962;42.696;23.354;2024-01-25T07:18:22;16.73;;;15.97;;
7833;SDS011;3962;42.696;23.354;2024-01-25T07:20:49;14.87;;;14.27;;
7833;SDS011;3962;42.696;23.354;2024-01-25T07:23:16;16.13;;;15.43;;
7833;SDS011;3962;42.696;23.354;2024-01-25T07:25:43;17.33;;;16.43;;
7833;SDS011;3962;42.696;23.354;2024-01-25T07:28:11;17.07;;;16.27;;
7833;SDS011;3962;42.696;23.354;2024-01-25T07:30:39;14.77;;;14.17;;
7833;SDS011;3962;42.696;23.354;2024-01-25T07:33:08;15.40;;;14.70;;
7833;SDS011;3962;42.696;23.354;2024-01-25T07:35:35;15.50;;;14.80;;
7833;SDS011;3962;42.696;23.354;2024-01-25T07:38:02;15.23;;;14.57;;
7833;SDS011;3962;42.696;23.354;2024-01-25T07:40:30;16.00;;;15.30;;
7833;SDS011;3962;42.696;23.354;2024-01-25T07:42:56;15.23;;;14.43;;
7833;SDS011;3962;42.696;23.354;2024-01-25T07:45:23;15.23;;;14.57;;
7833;SDS011;3962;42.696;23.354;2024-01-25T07:47:50;15.30;;;14.60;;
7833;SDS011;3962;42.696;23.354;2024-01-25T07:50:18;14.87;;;14.23;;
7833;SDS011;3962;42.696;23.354;2024-01-25T07:52:45;15.57;;;14.87;;
7833;SDS011;3962;42.696;23.354;2024-01-25T07:55:15;14.77;;;14.17;;
7833;SDS011;3962;42.696;23.354;2024-01-25T07:57:42;15.57;;;14.87;;
7833;SDS011;3962;42.696;23.354;2024-01-25T08:00:12;15.73;;;15.03;;
7833;SDS011;3962;42.696;23.354;2024-01-25T08:02:39;16.37;;;15.67;;
7833;SDS011;3962;42.696;23.354;2024-01-25T08:05:07;16.53;;;15.83;;
7833;SDS011;3962;42.696;23.354;2024-01-25T08:07:38;15.47;;;14.77;;
7833;SDS011;3962;42.696;23.354;2024-01-25T08:10:05;14.43;;;13.83;;
7833;SDS011;3962;42.696;23.354;2024-01-25T08:12:34;14.37;;;13.77;;
7833;SDS011;3962;42.696;23.354;2024-01-25T08:15:05;13.70;;;13.10;;
7833;SDS011;3962;42.696;23.354;2024-01-25T08:17:32;16.60;;;15.80;;
7833;SDS011;3962;42.696;23.354;2024-01-25T08:20:01;15.40;;;14.70;;
7833;SDS011;3962;42.696;23.354;2024-01-25T08:22:30;15.60;;;14.90;;
7833;SDS011;3962;42.696;23.354;2024-01-25T08:24:58;16.17;;;15.47;;
7833;SDS011;3962;42.696;23.354;2024-01-25T08:27:25;13.63;;;13.03;;
7833;SDS011;3962;42.696;23.354;2024-01-25T08:29:52;16.53;;;15.73;;
7833;SDS011;3962;42.696;23.354;2024-01-25T08:32:19;13.97;;;13.37;;
7833;SDS011;3962;42.696;23.354;2024-01-25T08:34:46;15.47;;;14.77;;
7833;SDS011;3962;42.696;23.354;2024-01-25T08:37:12;13.97;;;13.37;;
7833;SDS011;3962;42.696;23.354;2024-01-25T08:39:39;15.70;;;15.00;;
7833;SDS011;3962;42.696;23.354;2024-01-25T08:42:10;14.03;;;13.43;;
7833;SDS011;3962;42.696;23.354;2024-01-25T08:44:37;16.33;;;15.63;;
7833;SDS011;3962;42.696;23.354;2024-01-25T08:47:06;13.80;;;13.20;;
7833;SDS011;3962;42.696;23.354;2024-01-25T08:49:37;14.83;;;14.17;;
7833;SDS011;3962;42.696;23.354;2024-01-25T08:52:04;15.70;;;15.00;;
7833;SDS011;3962;42.696;23.354;2024-01-25T08:54:32;14.60;;;13.90;;
7833;SDS011;3962;42.696;23.354;2024-01-25T08:56:59;14.33;;;13.73;;
7833;SDS011;3962;42.696;23.354;2024-01-25T08:59:27;14.07;;;13.47;;
7833;SDS011;3962;42.696;23.354;2024-01-25T09:01:57;15.73;;;15.03;;
7833;SDS011;3962;42.696;23.354;2024-01-25T09:04:24;14.47;;;13.87;;
7833;SDS011;3962;42.696;23.354;2024-01-25T09:06:52;13.73;;;13.13;;
7833;SDS011;3962;42.696;23.354;2024-01-25T09:09:18;13.90;;;13.30;;
7833;SDS011;3962;42.696;23.354;2024-01-25T09:11:45;13.27;;;12.67;;
7833;SDS011;3962;42.696;23.354;2024-01-25T09:14:14;14.10;;;13.50;;
7833;SDS011;3962;42.696;23.354;2024-01-25T09:16:43;13.10;;;12.50;;
7833;SDS011;3962;42.696;23.354;2024-01-25T09:19:10;14.07;;;13.47;;
7833;SDS011;3962;42.696;23.354;2024-01-25T09:21:38;13.87;;;13.23;;
7833;SDS011;3962;42.696;23.354;2024-01-25T09:24:05;14.70;;;14.10;;
7833;SDS011;3962;42.696;23.354;2024-01-25T09:26:32;15.60;;;14.80;;
7833;SDS011;3962;42.696;23.354;2024-01-25T09:28:59;15.23;;;14.53;;
7833;SDS011;3962;42.696;23.354;2024-01-25T09:31:26;14.27;;;13.57;;
7833;SDS011;3962;42.696;23.354;2024-01-25T09:33:55;13.93;;;13.33;;
7833;SDS011;3962;42.696;23.354;2024-01-25T09:36:22;15.13;;;14.43;;
7833;SDS011;3962;42.696;23.354;2024-01-25T09:38:49;14.27;;;13.67;;
7833;SDS011;3962;42.696;23.354;2024-01-25T09:41:16;15.33;;;14.63;;
7833;SDS011;3962;42.696;23.354;2024-01-25T09:43:43;16.27;;;15.57;;
7833;SDS011;3962;42.696;23.354;2024-01-25T09:46:11;15.63;;;14.83;;
7833;SDS011;3962;42.696;23.354;2024-01-25T09:48:41;13.13;;;12.53;;
7833;SDS011;3962;42.696;23.354;2024-01-25T09:51:12;14.10;;;13.50;;
7833;SDS011;3962;42.696;23.354;2024-01-25T09:53:39;12.67;;;12.07;;
7833;SDS011;3962;42.696;23.354;2024-01-25T09:56:09;14.17;;;13.57;;
7833;SDS011;3962;42.696;23.354;2024-01-25T09:58:38;14.07;;;13.40;;
7833;SDS011;3962;42.696;23.354;2024-01-25T10:01:10;13.93;;;13.33;;
7833;SDS011;3962;42.696;23.354;2024-01-25T10:03:38;13.93;;;13.33;;
7833;SDS011;3962;42.696;23.354;2024-01-25T10:06:06;14.03;;;13.40;;
7833;SDS011;3962;42.696;23.354;2024-01-25T10:08:35;13.80;;;13.20;;
7833;SDS011;3962;42.696;23.354;2024-01-25T10:11:02;15.27;;;14.57;;
7833;SDS011;3962;42.696;23.354;2024-01-25T10:13:29;13.67;;;13.07;;
7833;SDS011;3962;42.696;23.354;2024-01-25T10:15:57;14.80;;;14.13;;
7833;SDS011;3962;42.696;23.354;2024-01-25T10:18:24;14.57;;;13.87;;
7833;SDS011;3962;42.696;23.354;2024-01-25T10:20:52;15.87;;;15.17;;
7833;SDS011;3962;42.696;23.354;2024-01-25T10:23:20;14.37;;;13.77;;
7833;SDS011;3962;42.696;23.354;2024-01-25T10:25:51;14.40;;;13.80;;
7833;SDS011;3962;42.696;23.354;2024-01-25T10:28:18;13.13;;;12.53;;
7833;SDS011;3962;42.696;23.354;2024-01-25T10:30:45;14.77;;;14.17;;
7833;SDS011;3962;42.696;23.354;2024-01-25T10:33:13;13.73;;;13.13;;
7833;SDS011;3962;42.696;23.354;2024-01-25T10:35:41;12.27;;;11.77;;
7833;SDS011;3962;42.696;23.354;2024-01-25T10:38:10;13.10;;;12.53;;
7833;SDS011;3962;42.696;23.354;2024-01-25T10:40:38;12.47;;;11.97;;
7833;SDS011;3962;42.696;23.354;2024-01-25T10:43:06;14.23;;;13.60;;
7833;SDS011;3962;42.696;23.354;2024-01-25T10:45:34;12.50;;;11.97;;
7833;SDS011;3962;42.696;23.354;2024-01-25T10:48:01;14.70;;;14.00;;
7833;SDS011;3962;42.696;23.354;2024-01-25T10:50:28;15.50;;;14.80;;
7833;SDS011;3962;42.696;23.354;2024-01-25T10:52:55;12.80;;;12.23;;
7833;SDS011;3962;42.696;23.354;2024-01-25T10:55:23;13.10;;;12.50;;
7833;SDS011;3962;42.696;23.354;2024-01-25T10:57:51;14.00;;;13.40;;
7833;SDS011;3962;42.696;23.354;2024-01-25T11:00:20;14.33;;;13.67;;
7833;SDS011;3962;42.696;23.354;2024-01-25T11:02:48;12.17;;;11.67;;
7833;SDS011;3962;42.696;23.354;2024-01-25T11:05:18;14.40;;;13.80;;
7833;SDS011;3962;42.696;23.354;2024-01-25T11:07:46;12.90;;;12.30;;
7833;SDS011;3962;42.696;23.354;2024-01-25T11:10:15;14.90;;;14.23;;
7833;SDS011;3962;42.696;23.354;2024-01-25T11:12:50;11.50;;;11.00;;
7833;SDS011;3962;42.696;23.354;2024-01-25T11:15:21;15.40;;;14.70;;
7833;SDS011;3962;42.696;23.354;2024-01-25T11:17:55;15.17;;;14.47;;
7833;SDS011;3962;42.696;23.354;2024-01-25T11:20:23;14.37;;;13.77;;
7833;SDS011;3962;42.696;23.354;2024-01-25T11:22:58;14.03;;;13.43;;
7833;SDS011;3962;42.696;23.354;2024-01-25T11:25:27;15.67;;;14.97;;
7833;SDS011;3962;42.696;23.354;2024-01-25T11:27:55;13.60;;;13.00;;
7833;SDS011;3962;42.696;23.354;2024-01-25T11:30:24;15.17;;;14.47;;
7833;SDS011;3962;42.696;23.354;2024-01-25T11:32:52;14.90;;;14.20;;
7833;SDS011;3962;42.696;23.354;2024-01-25T11:35:19;15.20;;;14.50;;
7833;SDS011;3962;42.696;23.354;2024-01-25T11:37:47;14.57;;;13.90;;
7833;SDS011;3962;42.696;23.354;2024-01-25T11:40:16;13.53;;;12.93;;
7833;SDS011;3962;42.696;23.354;2024-01-25T11:42:44;13.70;;;13.10;;
7833;SDS011;3962;42.696;23.354;2024-01-25T11:45:12;14.63;;;14.03;;
7833;SDS011;3962;42.696;23.354;2024-01-25T11:47:41;16.27;;;15.57;;
7833;SDS011;3962;42.696;23.354;2024-01-25T11:50:10;15.90;;;15.20;;
7833;SDS011;3962;42.696;23.354;2024-01-25T11:52:38;15.43;;;14.73;;
7833;SDS011;3962;42.696;23.354;2024-01-25T11:55:06;13.07;;;12.47;;
7833;SDS011;3962;42.696;23.354;2024-01-25T11:57:34;14.80;;;14.10;;
7833;SDS011;3962;42.696;23.354;2024-01-25T12:00:03;15.20;;;14.40;;
7833;SDS011;3962;42.696;23.354;2024-01-25T12:02:32;13.00;;;12.40;;
7833;SDS011;3962;42.696;23.354;2024-01-25T12:05:01;16.20;;;15.47;;
7833;SDS011;3962;42.696;23.354;2024-01-25T12:07:29;16.13;;;15.43;;
7833;SDS011;3962;42.696;23.354;2024-01-25T12:09:57;13.57;;;12.97;;
7833;SDS011;3962;42.696;23.354;2024-01-25T12:12:25;14.03;;;13.43;;
7833;SDS011;3962;42.696;23.354;2024-01-25T12:14:57;15.70;;;14.97;;
7833;SDS011;3962;42.696;23.354;2024-01-25T12:17:28;15.33;;;14.63;;
7833;SDS011;3962;42.696;23.354;2024-01-25T12:19:55;13.67;;;13.07;;
7833;SDS011;3962;42.696;23.354;2024-01-25T12:22:26;14.80;;;14.10;;
7833;SDS011;3962;42.696;23.354;2024-01-25T12:24:53;14.33;;;13.67;;
7833;SDS011;3962;42.696;23.354;2024-01-25T12:27:20;14.40;;;13.80;;
7833;SDS011;3962;42.696;23.354;2024-01-25T12:29:48;13.63;;;13.03;;
7833;SDS011;3962;42.696;23.354;2024-01-25T12:32:16;14.40;;;13.80;;
7833;SDS011;3962;42.696;23.354;2024-01-25T12:34:51;12.97;;;12.37;;
7833;SDS011;3962;42.696;23.354;2024-01-25T12:37:20;15.17;;;14.47;;
7833;SDS011;3962;42.696;23.354;2024-01-25T12:39:51;14.00;;;13.40;;
7833;SDS011;3962;42.696;23.354;2024-01-25T12:42:18;13.50;;;12.90;;
7833;SDS011;3962;42.696;23.354;2024-01-25T12:44:45;13.27;;;12.67;;
7833;SDS011;3962;42.696;23.354;2024-01-25T12:47:13;13.73;;;13.13;;
7833;SDS011;3962;42.696;23.354;2024-01-25T12:49:44;15.50;;;14.80;;
7833;SDS011;3962;42.696;23.354;2024-01-25T12:52:12;13.83;;;13.23;;
7833;SDS011;3962;42.696;23.354;2024-01-25T12:54:41;16.10;;;15.40;;
7833;SDS011;3962;42.696;23.354;2024-01-25T12:57:09;13.47;;;12.87;;
7833;SDS011;3962;42.696;23.354;2024-01-25T12:59:36;13.60;;;13.00;;
7833;SDS011;3962;42.696;23.354;2024-01-25T13:02:04;13.00;;;12.40;;
7833;SDS011;3962;42.696;23.354;2024-01-25T13:04:33;13.07;;;12.47;;
7833;SDS011;3962;42.696;23.354;2024-01-25T13:07:00;14.37;;;13.67;;
7833;SDS011;3962;42.696;23.354;2024-01-25T13:09:27;11.70;;;11.20;;
7833;SDS011;3962;42.696;23.354;2024-01-25T13:11:54;12.97;;;12.40;;
7833;SDS011;3962;42.696;23.354;2024-01-25T13:14:23;12.87;;;12.27;;
7833;SDS011;3962;42.696;23.354;2024-01-25T13:16:51;13.87;;;13.27;;
7833;SDS011;3962;42.696;23.354;2024-01-25T13:19:18;14.37;;;13.77;;
7833;SDS011;3962;42.696;23.354;2024-01-25T13:21:45;13.10;;;12.50;;
7833;SDS011;3962;42.696;23.354;2024-01-25T13:24:12;13.40;;;12.80;;
7833;SDS011;3962;42.696;23.354;2024-01-25T13:26:39;13.90;;;13.30;;
7833;SDS011;3962;42.696;23.354;2024-01-25T13:29:07;12.97;;;12.37;;
7833;SDS011;3962;42.696;23.354;2024-01-25T13:31:39;12.70;;;12.10;;
7833;SDS011;3962;42.696;23.354;2024-01-25T13:34:06;15.13;;;14.43;;
7833;SDS011;3962;42.696;23.354;2024-01-25T13:36:33;14.07;;;13.47;;
7833;SDS011;3962;42.696;23.354;2024-01-25T13:39:00;14.80;;;14.10;;
7833;SDS011;3962;42.696;23.354;2024-01-25T13:41:26;15.07;;;14.40;;
7833;SDS011;3962;42.696;23.354;2024-01-25T13:43:55;13.83;;;13.23;;
7833;SDS011;3962;42.696;23.354;2024-01-25T13:46:22;13.43;;;12.83;;
7833;SDS011;3962;42.696;23.354;2024-01-25T13:48:51;13.90;;;13.27;;
7833;SDS011;3962;42.696;23.354;2024-01-25T13:51:18;15.00;;;14.30;;
7833;SDS011;3962;42.696;23.354;2024-01-25T13:53:45;14.67;;;13.97;;
7833;SDS011;3962;42.696;23.354;2024-01-25T13:56:13;14.87;;;14.17;;
7833;SDS011;3962;42.696;23.354;2024-01-25T13:58:40;14.63;;;13.93;;
7833;SDS011;3962;42.696;23.354;2024-01-25T14:01:07;13.63;;;13.03;;
7833;SDS011;3962;42.696;23.354;2024-01-25T14:03:34;14.17;;;13.47;;
7833;SDS011;3962;42.696;23.354;2024-01-25T14:06:03;11.97;;;11.47;;
7833;SDS011;3962;42.696;23.354;2024-01-25T14:08:30;14.90;;;14.27;;
7833;SDS011;3962;42.696;23.354;2024-01-25T14:10:57;13.87;;;13.20;;
7833;SDS011;3962;42.696;23.354;2024-01-25T14:13:24;15.00;;;14.33;;
7833;SDS011;3962;42.696;23.354;2024-01-25T14:15:51;14.93;;;14.13;;
7833;SDS011;3962;42.696;23.354;2024-01-25T14:18:18;14.60;;;14.00;;
7833;SDS011;3962;42.696;23.354;2024-01-25T14:20:45;15.83;;;15.10;;
7833;SDS011;3962;42.696;23.354;2024-01-25T14:23:14;13.83;;;13.23;;
7833;SDS011;3962;42.696;23.354;2024-01-25T14:25:41;14.70;;;14.00;;
7833;SDS011;3962;42.696;23.354;2024-01-25T14:28:08;14.47;;;13.87;;
7833;SDS011;3962;42.696;23.354;2024-01-25T14:30:35;14.83;;;14.13;;
7833;SDS011;3962;42.696;23.354;2024-01-25T14:33:02;15.13;;;14.43;;
7833;SDS011;3962;42.696;23.354;2024-01-25T14:35:29;14.67;;;14.03;;